Погода Сухаревичи Большиена 2 недели

Брестская область, Белоруссия

19 июля-01 августа
  • 19июля
    Сегодня
    +14°
    +27°
    Ясно и безоблачно
    ВремяПогодаТемператураВлажностьДавлениеВетер, м/сВероятность осадков
    00:00Ясно и безоблачно+20°C60 %753 мм2.6 м/с2 %
    03:00Небольшая облачность+17°C71 %753 мм2.4 м/с2 %
    06:00Ясно и безоблачно+16°C80 %753 мм2.1 м/с2 %
    09:00Практически безоблачно+19°C68 %753 мм2.4 м/с2 %
    12:00Ясно и безоблачно+23°C46 %753 мм3.5 м/с2 %
    15:00Ясно и безоблачно+25°C39 %752 мм3.5 м/с2 %
    18:00Ясно и безоблачно+26°C40 %751 мм4.0 м/с2 %
    21:00Ясно и безоблачно+23°C51 %750 мм2.7 м/с2 %
  • 20июля
    Суббота
    +15°
    +27°
    Облачно с прояснениями
    ВремяПогодаТемператураВлажностьДавлениеВетер, м/сВероятность осадков
    00:00Ясно и безоблачно+19°C69 %750 мм2.0 м/с2 %
    03:00Ясно и безоблачно+17°C72 %750 мм2.8 м/с2 %
    06:00Ясно и безоблачно+15°C83 %749 мм1.5 м/с2 %
    09:00Ясно и безоблачно+19°C63 %749 мм1.7 м/с2 %
    12:00Облачно с прояснениями+23°C42 %748 мм3.4 м/с2 %
    15:00Облачно с прояснениями+25°C35 %747 мм2.4 м/с2 %
    18:00Ясно и безоблачно+26°C35 %746 мм2.1 м/с2 %
    21:00Ясно и безоблачно+23°C55 %746 мм1.5 м/с2 %
  • 21июля
    Воскресенье
    +17°
    +29°
    Ясно и безоблачно
    ВремяПогодаТемператураВлажностьДавлениеВетер, м/сВероятность осадков
    00:00Практически безоблачно+19°C63 %746 мм2.3 м/с2 %
    03:00Облачно с прояснениями+17°C74 %745 мм1.9 м/с2 %
    06:00Облачно с прояснениями+16°C85 %745 мм1.6 м/с2 %
    09:00Ясно и безоблачно+20°C59 %745 мм1.4 м/с2 %
    12:00Ясно и безоблачно+25°C38 %745 мм1.9 м/с2 %
    15:00Ясно и безоблачно+27°C33 %744 мм1.6 м/с2 %
    18:00Практически безоблачно+28°C29 %744 мм1.6 м/с3 %
    21:00Облачно с прояснениями+25°C45 %744 мм0.7 м/с2 %
  • 22июля
    Понедельник
    +18°
    +30°
    Практически безоблачно
    ВремяПогодаТемператураВлажностьДавлениеВетер, м/сВероятность осадков
    00:00Ясно и безоблачно+21°C61 %744 мм2.0 м/с2 %
    03:00Ясно и безоблачно+18°C78 %744 мм1.8 м/с2 %
    06:00Ясно и безоблачно+17°C87 %744 мм1.7 м/с2 %
    09:00Ясно и безоблачно+22°C62 %745 мм1.6 м/с2 %
    12:00Практически безоблачно+27°C37 %745 мм2.4 м/с5 %
    15:00Практически безоблачно+28°C34 %745 мм2.6 м/с12 %
    18:00Практически безоблачно+30°C34 %744 мм1.4 м/с12 %
    21:00Ясно и безоблачно+27°C51 %745 мм1.2 м/с15 %
  • 23июля
    Вторник
    +17°
    +26°
    Пасмурно, ливень
    ВремяПогодаТемператураВлажностьДавлениеВетер, м/сВероятность осадков
    00:00Ясно и безоблачно+23°C60 %745 мм1.5 м/с10 %
    03:00Практически безоблачно+20°C68 %745 мм1.9 м/с14 %
    06:00Небольшая облачность+19°C75 %745 мм1.9 м/с21 %
    09:00Облачно с прояснениями+21°C63 %745 мм2.5 м/с19 %
    12:00Небольшая облачность+25°C45 %745 мм3.0 м/с24 %
    15:00Пасмурно, ливень+25°C49 %746 мм3.5 м/с35 %
    18:00Пасмурно, сплошная облачность+26°C60 %746 мм3.8 м/с35 %
    21:00Практически безоблачно+24°C64 %746 мм3.3 м/с20 %
Мы используем cookies
Соглашаюсь